sensor_id;sensor_type;location;lat;lon;timestamp;temperature;humidity
16172;DHT22;8192;53.596;10.166;2023-03-31T00:02:00;9.90;99.90
16172;DHT22;8192;53.596;10.166;2023-03-31T00:04:27;9.90;99.90
16172;DHT22;8192;53.596;10.166;2023-03-31T00:06:56;9.90;99.90
16172;DHT22;8192;53.596;10.166;2023-03-31T00:12:47;9.90;99.90
16172;DHT22;8192;53.596;10.166;2023-03-31T00:15:14;9.80;99.90
16172;DHT22;8192;53.596;10.166;2023-03-31T00:17:44;9.80;99.90
16172;DHT22;8192;53.596;10.166;2023-03-31T00:20:12;9.80;99.90
16172;DHT22;8192;53.596;10.166;2023-03-31T00:22:40;9.80;99.90
16172;DHT22;8192;53.596;10.166;2023-03-31T00:25:12;9.80;99.90
16172;DHT22;8192;53.596;10.166;2023-03-31T00:27:41;9.80;99.90
16172;DHT22;8192;53.596;10.166;2023-03-31T00:30:11;9.80;99.90
16172;DHT22;8192;53.596;10.166;2023-03-31T00:32:40;9.70;99.90
16172;DHT22;8192;53.596;10.166;2023-03-31T00:35:08;9.70;99.90
16172;DHT22;8192;53.596;10.166;2023-03-31T00:37:35;9.80;99.90
16172;DHT22;8192;53.596;10.166;2023-03-31T00:40:03;9.70;99.90
16172;DHT22;8192;53.596;10.166;2023-03-31T00:42:38;9.70;99.90
16172;DHT22;8192;53.596;10.166;2023-03-31T00:45:28;9.60;99.90
16172;DHT22;8192;53.596;10.166;2023-03-31T00:48:02;9.60;99.90
16172;DHT22;8192;53.596;10.166;2023-03-31T00:50:37;9.60;99.90
16172;DHT22;8192;53.596;10.166;2023-03-31T00:53:10;9.60;99.90
16172;DHT22;8192;53.596;10.166;2023-03-31T00:55:42;9.60;99.90
16172;DHT22;8192;53.596;10.166;2023-03-31T00:58:11;9.60;99.90
16172;DHT22;8192;53.596;10.166;2023-03-31T01:00:41;9.60;99.90
16172;DHT22;8192;53.596;10.166;2023-03-31T01:03:09;9.50;99.90
16172;DHT22;8192;53.596;10.166;2023-03-31T01:05:39;9.60;99.90
16172;DHT22;8192;53.596;10.166;2023-03-31T01:08:08;9.50;99.90
16172;DHT22;8192;53.596;10.166;2023-03-31T01:10:39;9.50;99.90
16172;DHT22;8192;53.596;10.166;2023-03-31T01:13:08;9.50;99.90
16172;DHT22;8192;53.596;10.166;2023-03-31T01:15:36;9.50;99.90
16172;DHT22;8192;53.596;10.166;2023-03-31T01:18:06;9.50;99.90
16172;DHT22;8192;53.596;10.166;2023-03-31T01:24:07;9.40;99.90
16172;DHT22;8192;53.596;10.166;2023-03-31T01:26:51;9.30;99.90
16172;DHT22;8192;53.596;10.166;2023-03-31T01:29:52;9.40;99.90
16172;DHT22;8192;53.596;10.166;2023-03-31T01:32:50;9.40;99.90
16172;DHT22;8192;53.596;10.166;2023-03-31T01:35:54;9.40;99.90
16172;DHT22;8192;53.596;10.166;2023-03-31T01:38:46;9.50;99.90
16172;DHT22;8192;53.596;10.166;2023-03-31T01:41:26;9.60;99.90
16172;DHT22;8192;53.596;10.166;2023-03-31T01:44:01;9.60;99.90
16172;DHT22;8192;53.596;10.166;2023-03-31T01:46:35;9.60;99.90
16172;DHT22;8192;53.596;10.166;2023-03-31T01:49:10;9.60;99.90
16172;DHT22;8192;53.596;10.166;2023-03-31T01:51:46;9.60;99.90
16172;DHT22;8192;53.596;10.166;2023-03-31T01:54:19;9.70;99.90
16172;DHT22;8192;53.596;10.166;2023-03-31T01:56:49;9.80;99.90
16172;DHT22;8192;53.596;10.166;2023-03-31T01:59:22;9.50;99.90
16172;DHT22;8192;53.596;10.166;2023-03-31T02:01:54;9.50;99.90
16172;DHT22;8192;53.596;10.166;2023-03-31T02:04:25;9.40;99.90
16172;DHT22;8192;53.596;10.166;2023-03-31T02:06:58;9.40;99.90
16172;DHT22;8192;53.596;10.166;2023-03-31T02:09:32;9.30;99.90
16172;DHT22;8192;53.596;10.166;2023-03-31T02:12:04;9.40;99.90
16172;DHT22;8192;53.596;10.166;2023-03-31T02:14:35;9.40;99.90
16172;DHT22;8192;53.596;10.166;2023-03-31T02:17:04;9.40;99.90
16172;DHT22;8192;53.596;10.166;2023-03-31T02:19:37;9.50;99.90
16172;DHT22;8192;53.596;10.166;2023-03-31T02:22:07;9.50;99.90
16172;DHT22;8192;53.596;10.166;2023-03-31T02:24:38;9.60;99.90
16172;DHT22;8192;53.596;10.166;2023-03-31T02:27:11;9.60;99.90
16172;DHT22;8192;53.596;10.166;2023-03-31T02:29:40;9.50;99.90
16172;DHT22;8192;53.596;10.166;2023-03-31T02:32:10;9.50;99.90
16172;DHT22;8192;53.596;10.166;2023-03-31T02:34:39;9.50;99.90
16172;DHT22;8192;53.596;10.166;2023-03-31T02:37:06;9.60;99.90
16172;DHT22;8192;53.596;10.166;2023-03-31T02:39:35;9.50;99.90
16172;DHT22;8192;53.596;10.166;2023-03-31T02:42:04;9.50;99.90
16172;DHT22;8192;53.596;10.166;2023-03-31T02:44:35;9.50;99.90
16172;DHT22;8192;53.596;10.166;2023-03-31T02:47:03;9.50;99.90
16172;DHT22;8192;53.596;10.166;2023-03-31T02:49:32;9.60;99.90
16172;DHT22;8192;53.596;10.166;2023-03-31T02:58:41;9.60;99.90
16172;DHT22;8192;53.596;10.166;2023-03-31T03:01:30;9.60;99.90
16172;DHT22;8192;53.596;10.166;2023-03-31T03:04:14;9.60;99.90
16172;DHT22;8192;53.596;10.166;2023-03-31T03:06:54;9.60;99.90
16172;DHT22;8192;53.596;10.166;2023-03-31T03:09:34;9.50;99.90
16172;DHT22;8192;53.596;10.166;2023-03-31T03:12:14;9.50;99.90
16172;DHT22;8192;53.596;10.166;2023-03-31T03:14:46;9.50;99.90
16172;DHT22;8192;53.596;10.166;2023-03-31T03:17:21;9.50;99.90
16172;DHT22;8192;53.596;10.166;2023-03-31T03:19:53;9.60;99.90
16172;DHT22;8192;53.596;10.166;2023-03-31T03:22:21;9.50;99.90
16172;DHT22;8192;53.596;10.166;2023-03-31T03:24:51;9.40;99.90
16172;DHT22;8192;53.596;10.166;2023-03-31T03:27:18;9.40;99.90
16172;DHT22;8192;53.596;10.166;2023-03-31T03:29:47;9.40;99.90
16172;DHT22;8192;53.596;10.166;2023-03-31T03:32:14;9.30;99.90
16172;DHT22;8192;53.596;10.166;2023-03-31T03:34:45;9.30;99.90
16172;DHT22;8192;53.596;10.166;2023-03-31T03:37:17;9.30;99.90
16172;DHT22;8192;53.596;10.166;2023-03-31T03:39:44;9.20;99.90
16172;DHT22;8192;53.596;10.166;2023-03-31T03:42:11;9.20;99.90
16172;DHT22;8192;53.596;10.166;2023-03-31T03:44:38;9.10;99.90
16172;DHT22;8192;53.596;10.166;2023-03-31T03:47:06;9.00;99.90
16172;DHT22;8192;53.596;10.166;2023-03-31T03:49:34;9.00;99.90
16172;DHT22;8192;53.596;10.166;2023-03-31T03:52:02;9.00;99.90
16172;DHT22;8192;53.596;10.166;2023-03-31T03:54:30;9.10;99.90
16172;DHT22;8192;53.596;10.166;2023-03-31T03:56:57;9.00;99.90
16172;DHT22;8192;53.596;10.166;2023-03-31T03:59:25;9.10;99.90
16172;DHT22;8192;53.596;10.166;2023-03-31T04:01:53;9.00;99.90
16172;DHT22;8192;53.596;10.166;2023-03-31T04:04:20;9.00;99.90
16172;DHT22;8192;53.596;10.166;2023-03-31T04:06:47;9.00;99.90
16172;DHT22;8192;53.596;10.166;2023-03-31T04:09:19;9.00;99.90
16172;DHT22;8192;53.596;10.166;2023-03-31T04:12:14;9.00;99.90
16172;DHT22;8192;53.596;10.166;2023-03-31T04:14:42;9.00;99.90
16172;DHT22;8192;53.596;10.166;2023-03-31T04:17:09;9.10;99.90
16172;DHT22;8192;53.596;10.166;2023-03-31T04:19:40;9.10;99.90
16172;DHT22;8192;53.596;10.166;2023-03-31T04:22:07;9.10;99.90
16172;DHT22;8192;53.596;10.166;2023-03-31T04:24:39;9.10;99.90
16172;DHT22;8192;53.596;10.166;2023-03-31T04:27:07;9.10;99.90
16172;DHT22;8192;53.596;10.166;2023-03-31T04:29:35;9.00;99.90
16172;DHT22;8192;53.596;10.166;2023-03-31T04:32:02;9.00;99.90
16172;DHT22;8192;53.596;10.166;2023-03-31T04:34:29;9.00;99.90
16172;DHT22;8192;53.596;10.166;2023-03-31T04:37:00;9.00;99.90
16172;DHT22;8192;53.596;10.166;2023-03-31T04:39:29;9.00;99.90
16172;DHT22;8192;53.596;10.166;2023-03-31T04:42:00;9.00;99.90
16172;DHT22;8192;53.596;10.166;2023-03-31T04:44:28;9.10;99.90
16172;DHT22;8192;53.596;10.166;2023-03-31T04:50:26;9.00;99.90
16172;DHT22;8192;53.596;10.166;2023-03-31T04:52:54;9.00;99.90
16172;DHT22;8192;53.596;10.166;2023-03-31T04:55:21;8.90;99.90
16172;DHT22;8192;53.596;10.166;2023-03-31T04:57:49;9.00;99.90
16172;DHT22;8192;53.596;10.166;2023-03-31T05:00:18;8.90;99.90
16172;DHT22;8192;53.596;10.166;2023-03-31T05:02:45;8.90;99.90
16172;DHT22;8192;53.596;10.166;2023-03-31T05:05:12;8.90;99.90
16172;DHT22;8192;53.596;10.166;2023-03-31T05:07:40;9.00;99.90
16172;DHT22;8192;53.596;10.166;2023-03-31T05:10:07;9.30;99.90
16172;DHT22;8192;53.596;10.166;2023-03-31T05:12:35;9.00;99.90
16172;DHT22;8192;53.596;10.166;2023-03-31T05:15:05;9.00;99.90
16172;DHT22;8192;53.596;10.166;2023-03-31T05:36:36;9.30;99.90
16172;DHT22;8192;53.596;10.166;2023-03-31T05:39:40;9.30;99.90
16172;DHT22;8192;53.596;10.166;2023-03-31T05:57:37;9.30;99.90
16172;DHT22;8192;53.596;10.166;2023-03-31T06:03:40;9.50;99.90
16172;DHT22;8192;53.596;10.166;2023-03-31T06:06:27;9.50;99.90
16172;DHT22;8192;53.596;10.166;2023-03-31T06:08:55;9.60;99.90
16172;DHT22;8192;53.596;10.166;2023-03-31T06:11:30;9.60;99.90
16172;DHT22;8192;53.596;10.166;2023-03-31T06:20:56;9.90;99.90
16172;DHT22;8192;53.596;10.166;2023-03-31T06:23:41;10.00;99.90
16172;DHT22;8192;53.596;10.166;2023-03-31T06:26:12;10.30;99.90
16172;DHT22;8192;53.596;10.166;2023-03-31T07:27:23;11.80;99.90
16172;DHT22;8192;53.596;10.166;2023-03-31T07:58:31;12.40;99.90
16172;DHT22;8192;53.596;10.166;2023-03-31T08:04:51;11.90;99.90
16172;DHT22;8192;53.596;10.166;2023-03-31T08:07:21;11.70;99.90
16172;DHT22;8192;53.596;10.166;2023-03-31T08:10:18;11.40;99.90
16172;DHT22;8192;53.596;10.166;2023-03-31T08:15:31;11.10;99.90
16172;DHT22;8192;53.596;10.166;2023-03-31T08:18:03;11.00;99.90
16172;DHT22;8192;53.596;10.166;2023-03-31T11:10:51;12.30;99.90
16172;DHT22;8192;53.596;10.166;2023-03-31T11:13:28;12.20;99.90
16172;DHT22;8192;53.596;10.166;2023-03-31T11:16:05;12.00;99.90
16172;DHT22;8192;53.596;10.166;2023-03-31T11:18:45;11.90;99.90
16172;DHT22;8192;53.596;10.166;2023-03-31T11:21:22;11.70;99.90
16172;DHT22;8192;53.596;10.166;2023-03-31T11:23:57;11.50;99.90
16172;DHT22;8192;53.596;10.166;2023-03-31T11:26:35;11.50;99.90
16172;DHT22;8192;53.596;10.166;2023-03-31T11:29:13;11.70;99.90
16172;DHT22;8192;53.596;10.166;2023-03-31T11:31:50;11.80;99.90
16172;DHT22;8192;53.596;10.166;2023-03-31T11:34:32;11.60;99.90
16172;DHT22;8192;53.596;10.166;2023-03-31T11:37:24;11.50;99.90
16172;DHT22;8192;53.596;10.166;2023-03-31T11:40:14;11.50;99.90
16172;DHT22;8192;53.596;10.166;2023-03-31T11:42:50;11.60;99.90
16172;DHT22;8192;53.596;10.166;2023-03-31T11:45:21;11.70;99.90
16172;DHT22;8192;53.596;10.166;2023-03-31T11:47:52;11.60;99.90
16172;DHT22;8192;53.596;10.166;2023-03-31T11:50:24;11.70;99.90
16172;DHT22;8192;53.596;10.166;2023-03-31T11:52:56;11.80;99.90
16172;DHT22;8192;53.596;10.166;2023-03-31T11:55:28;11.60;99.90
16172;DHT22;8192;53.596;10.166;2023-03-31T11:58:01;11.30;99.90
16172;DHT22;8192;53.596;10.166;2023-03-31T12:00:31;11.30;99.90
16172;DHT22;8192;53.596;10.166;2023-03-31T12:03:07;11.50;99.90
16172;DHT22;8192;53.596;10.166;2023-03-31T12:05:39;11.40;99.90
16172;DHT22;8192;53.596;10.166;2023-03-31T12:08:13;11.40;99.90
16172;DHT22;8192;53.596;10.166;2023-03-31T12:10:44;11.30;99.90
16172;DHT22;8192;53.596;10.166;2023-03-31T12:13:30;11.10;99.90
16172;DHT22;8192;53.596;10.166;2023-03-31T12:16:04;11.00;99.90
16172;DHT22;8192;53.596;10.166;2023-03-31T12:18:34;11.10;99.90
16172;DHT22;8192;53.596;10.166;2023-03-31T12:21:13;10.90;99.90
16172;DHT22;8192;53.596;10.166;2023-03-31T12:23:43;11.10;99.90
16172;DHT22;8192;53.596;10.166;2023-03-31T12:26:20;10.90;99.90
16172;DHT22;8192;53.596;10.166;2023-03-31T12:28:55;10.80;99.90
16172;DHT22;8192;53.596;10.166;2023-03-31T12:31:25;10.80;99.90
16172;DHT22;8192;53.596;10.166;2023-03-31T12:33:57;10.80;99.90
16172;DHT22;8192;53.596;10.166;2023-03-31T12:36:36;10.70;99.90
16172;DHT22;8192;53.596;10.166;2023-03-31T12:39:17;10.80;99.90
16172;DHT22;8192;53.596;10.166;2023-03-31T12:41:59;10.70;99.90
16172;DHT22;8192;53.596;10.166;2023-03-31T12:44:43;10.80;99.90
16172;DHT22;8192;53.596;10.166;2023-03-31T12:47:31;10.70;99.90
16172;DHT22;8192;53.596;10.166;2023-03-31T12:53:02;10.80;99.90
16172;DHT22;8192;53.596;10.166;2023-03-31T12:55:36;10.80;99.90
16172;DHT22;8192;53.596;10.166;2023-03-31T12:58:37;10.80;99.90
16172;DHT22;8192;53.596;10.166;2023-03-31T13:01:12;10.80;99.90
16172;DHT22;8192;53.596;10.166;2023-03-31T13:03:49;10.60;99.90
16172;DHT22;8192;53.596;10.166;2023-03-31T13:06:52;10.60;99.90
16172;DHT22;8192;53.596;10.166;2023-03-31T13:09:45;10.60;99.90
16172;DHT22;8192;53.596;10.166;2023-03-31T13:12:18;10.60;99.90
16172;DHT22;8192;53.596;10.166;2023-03-31T13:14:50;10.70;99.90
16172;DHT22;8192;53.596;10.166;2023-03-31T13:17:37;10.90;99.90
16172;DHT22;8192;53.596;10.166;2023-03-31T13:20:24;11.20;99.90
16172;DHT22;8192;53.596;10.166;2023-03-31T14:16:33;11.90;99.90
16172;DHT22;8192;53.596;10.166;2023-03-31T14:22:39;12.10;99.90
16172;DHT22;8192;53.596;10.166;2023-03-31T14:25:55;12.60;99.90
16172;DHT22;8192;53.596;10.166;2023-03-31T14:28:53;13.20;99.90
16172;DHT22;8192;53.596;10.166;2023-03-31T14:31:28;13.70;99.90
16172;DHT22;8192;53.596;10.166;2023-03-31T14:34:39;13.60;99.90
16172;DHT22;8192;53.596;10.166;2023-03-31T15:46:19;13.60;99.90
16172;DHT22;8192;53.596;10.166;2023-03-31T15:48:51;13.60;99.90
16172;DHT22;8192;53.596;10.166;2023-03-31T15:51:24;13.60;99.90
16172;DHT22;8192;53.596;10.166;2023-03-31T15:54:27;13.60;99.90
16172;DHT22;8192;53.596;10.166;2023-03-31T15:57:02;13.60;99.90
16172;DHT22;8192;53.596;10.166;2023-03-31T16:02:54;13.20;99.90
16172;DHT22;8192;53.596;10.166;2023-03-31T16:05:39;13.20;99.90
16172;DHT22;8192;53.596;10.166;2023-03-31T16:11:45;13.00;99.90
16172;DHT22;8192;53.596;10.166;2023-03-31T16:14:33;13.00;99.90
16172;DHT22;8192;53.596;10.166;2023-03-31T16:17:05;13.00;99.90
16172;DHT22;8192;53.596;10.166;2023-03-31T16:19:54;12.90;99.90
16172;DHT22;8192;53.596;10.166;2023-03-31T16:22:29;12.70;99.90
16172;DHT22;8192;53.596;10.166;2023-03-31T16:28:18;12.30;99.90
16172;DHT22;8192;53.596;10.166;2023-03-31T16:30:48;12.20;99.90
16172;DHT22;8192;53.596;10.166;2023-03-31T16:33:20;12.20;99.90
16172;DHT22;8192;53.596;10.166;2023-03-31T16:35:51;12.10;99.90
16172;DHT22;8192;53.596;10.166;2023-03-31T16:38:22;12.00;99.90
16172;DHT22;8192;53.596;10.166;2023-03-31T16:44:17;11.80;99.90
16172;DHT22;8192;53.596;10.166;2023-03-31T16:46:47;11.70;99.90
16172;DHT22;8192;53.596;10.166;2023-03-31T16:49:17;11.60;99.90
16172;DHT22;8192;53.596;10.166;2023-03-31T16:51:46;11.50;99.90
16172;DHT22;8192;53.596;10.166;2023-03-31T16:57:37;11.30;99.90
16172;DHT22;8192;53.596;10.166;2023-03-31T17:00:06;11.20;99.90
16172;DHT22;8192;53.596;10.166;2023-03-31T17:02:35;11.10;99.90
16172;DHT22;8192;53.596;10.166;2023-03-31T17:05:06;11.10;99.90
16172;DHT22;8192;53.596;10.166;2023-03-31T17:07:44;11.10;99.90
16172;DHT22;8192;53.596;10.166;2023-03-31T17:10:12;11.10;99.90
16172;DHT22;8192;53.596;10.166;2023-03-31T17:12:39;10.90;99.90
16172;DHT22;8192;53.596;10.166;2023-03-31T17:15:46;10.80;99.90
16172;DHT22;8192;53.596;10.166;2023-03-31T17:18:13;10.70;99.90
16172;DHT22;8192;53.596;10.166;2023-03-31T17:20:47;10.60;99.90
16172;DHT22;8192;53.596;10.166;2023-03-31T17:23:17;10.50;99.90
16172;DHT22;8192;53.596;10.166;2023-03-31T17:29:09;10.40;99.90
16172;DHT22;8192;53.596;10.166;2023-03-31T17:31:37;10.30;99.90
16172;DHT22;8192;53.596;10.166;2023-03-31T17:37:27;10.20;99.90
16172;DHT22;8192;53.596;10.166;2023-03-31T17:40:26;10.00;99.90
16172;DHT22;8192;53.596;10.166;2023-03-31T17:43:16;9.90;99.90
16172;DHT22;8192;53.596;10.166;2023-03-31T17:45:47;9.80;99.90
16172;DHT22;8192;53.596;10.166;2023-03-31T17:48:29;9.80;99.90
16172;DHT22;8192;53.596;10.166;2023-03-31T17:51:06;9.70;99.90
16172;DHT22;8192;53.596;10.166;2023-03-31T17:53:39;9.70;99.90
16172;DHT22;8192;53.596;10.166;2023-03-31T17:59:50;9.90;99.90
16172;DHT22;8192;53.596;10.166;2023-03-31T18:02:35;9.90;99.90
16172;DHT22;8192;53.596;10.166;2023-03-31T18:05:16;10.00;99.90
16172;DHT22;8192;53.596;10.166;2023-03-31T18:07:58;10.00;99.90
16172;DHT22;8192;53.596;10.166;2023-03-31T18:10:30;10.30;99.90
16172;DHT22;8192;53.596;10.166;2023-03-31T18:13:13;10.00;99.90
16172;DHT22;8192;53.596;10.166;2023-03-31T18:15:57;10.00;99.90
16172;DHT22;8192;53.596;10.166;2023-03-31T18:19:01;9.90;99.90
16172;DHT22;8192;53.596;10.166;2023-03-31T18:21:54;10.00;99.90
16172;DHT22;8192;53.596;10.166;2023-03-31T18:24:23;9.90;99.90
16172;DHT22;8192;53.596;10.166;2023-03-31T18:26:51;10.10;99.90
16172;DHT22;8192;53.596;10.166;2023-03-31T18:29:32;10.10;99.90
16172;DHT22;8192;53.596;10.166;2023-03-31T18:32:15;10.00;99.90
16172;DHT22;8192;53.596;10.166;2023-03-31T18:34:53;10.10;99.90
16172;DHT22;8192;53.596;10.166;2023-03-31T18:37:35;10.10;99.90
16172;DHT22;8192;53.596;10.166;2023-03-31T18:40:06;10.10;99.90
16172;DHT22;8192;53.596;10.166;2023-03-31T18:42:35;10.10;99.90
16172;DHT22;8192;53.596;10.166;2023-03-31T18:45:02;10.00;99.90
16172;DHT22;8192;53.596;10.166;2023-03-31T18:47:48;10.10;99.90
16172;DHT22;8192;53.596;10.166;2023-03-31T18:50:16;10.10;99.90
16172;DHT22;8192;53.596;10.166;2023-03-31T18:52:59;10.10;99.90
16172;DHT22;8192;53.596;10.166;2023-03-31T18:55:42;10.10;99.90
16172;DHT22;8192;53.596;10.166;2023-03-31T18:58:11;10.10;99.90
16172;DHT22;8192;53.596;10.166;2023-03-31T19:01:14;10.10;99.90
16172;DHT22;8192;53.596;10.166;2023-03-31T19:04:05;10.10;99.90
16172;DHT22;8192;53.596;10.166;2023-03-31T19:06:37;10.10;99.90
16172;DHT22;8192;53.596;10.166;2023-03-31T19:09:20;10.00;99.90
16172;DHT22;8192;53.596;10.166;2023-03-31T19:11:52;10.00;99.90
16172;DHT22;8192;53.596;10.166;2023-03-31T19:14:36;10.00;99.90
16172;DHT22;8192;53.596;10.166;2023-03-31T19:17:05;10.00;99.90
16172;DHT22;8192;53.596;10.166;2023-03-31T19:19:38;10.10;99.90
16172;DHT22;8192;53.596;10.166;2023-03-31T19:22:08;10.00;99.90
16172;DHT22;8192;53.596;10.166;2023-03-31T19:34:50;9.90;99.90
16172;DHT22;8192;53.596;10.166;2023-03-31T19:37:19;9.90;99.90
16172;DHT22;8192;53.596;10.166;2023-03-31T19:39:46;9.90;99.90
16172;DHT22;8192;53.596;10.166;2023-03-31T19:42:13;9.90;99.90
16172;DHT22;8192;53.596;10.166;2023-03-31T19:44:42;9.90;99.90
16172;DHT22;8192;53.596;10.166;2023-03-31T19:47:09;9.90;99.90
16172;DHT22;8192;53.596;10.166;2023-03-31T19:49:37;9.90;99.90
16172;DHT22;8192;53.596;10.166;2023-03-31T19:52:05;9.80;99.90
16172;DHT22;8192;53.596;10.166;2023-03-31T19:54:32;10.00;99.90
16172;DHT22;8192;53.596;10.166;2023-03-31T19:56:59;9.80;99.90
16172;DHT22;8192;53.596;10.166;2023-03-31T19:59:30;9.70;99.90
16172;DHT22;8192;53.596;10.166;2023-03-31T20:01:57;9.70;99.90
16172;DHT22;8192;53.596;10.166;2023-03-31T20:04:27;9.70;99.90
16172;DHT22;8192;53.596;10.166;2023-03-31T20:06:54;9.70;99.90
16172;DHT22;8192;53.596;10.166;2023-03-31T20:09:22;9.60;99.90
16172;DHT22;8192;53.596;10.166;2023-03-31T20:11:51;9.60;99.90
16172;DHT22;8192;53.596;10.166;2023-03-31T20:14:18;9.70;99.90
16172;DHT22;8192;53.596;10.166;2023-03-31T20:16:45;9.60;99.90
16172;DHT22;8192;53.596;10.166;2023-03-31T20:19:14;9.60;99.90
16172;DHT22;8192;53.596;10.166;2023-03-31T20:21:42;9.60;99.90
16172;DHT22;8192;53.596;10.166;2023-03-31T20:24:14;9.60;99.90
16172;DHT22;8192;53.596;10.166;2023-03-31T20:26:44;9.60;99.90
16172;DHT22;8192;53.596;10.166;2023-03-31T20:29:13;9.60;99.90
16172;DHT22;8192;53.596;10.166;2023-03-31T20:31:43;9.60;99.90
16172;DHT22;8192;53.596;10.166;2023-03-31T20:34:21;9.60;99.90
16172;DHT22;8192;53.596;10.166;2023-03-31T20:37:07;9.60;99.90
16172;DHT22;8192;53.596;10.166;2023-03-31T20:39:34;9.50;99.90
16172;DHT22;8192;53.596;10.166;2023-03-31T20:42:05;9.50;99.90
16172;DHT22;8192;53.596;10.166;2023-03-31T20:44:32;9.50;99.90
16172;DHT22;8192;53.596;10.166;2023-03-31T20:47:12;9.50;99.90
16172;DHT22;8192;53.596;10.166;2023-03-31T20:49:40;9.60;99.90
16172;DHT22;8192;53.596;10.166;2023-03-31T20:52:07;9.60;99.90
16172;DHT22;8192;53.596;10.166;2023-03-31T20:54:35;9.60;99.90
16172;DHT22;8192;53.596;10.166;2023-03-31T20:57:02;9.60;99.90
16172;DHT22;8192;53.596;10.166;2023-03-31T20:59:33;9.60;99.90
16172;DHT22;8192;53.596;10.166;2023-03-31T21:02:00;9.60;99.90
16172;DHT22;8192;53.596;10.166;2023-03-31T21:04:27;9.60;99.90
16172;DHT22;8192;53.596;10.166;2023-03-31T21:06:54;9.60;99.90
16172;DHT22;8192;53.596;10.166;2023-03-31T21:09:21;9.60;99.90
16172;DHT22;8192;53.596;10.166;2023-03-31T21:11:49;9.60;99.90
16172;DHT22;8192;53.596;10.166;2023-03-31T21:14:17;9.60;99.90
16172;DHT22;8192;53.596;10.166;2023-03-31T21:16:45;9.60;99.90
16172;DHT22;8192;53.596;10.166;2023-03-31T21:19:12;9.60;99.90
16172;DHT22;8192;53.596;10.166;2023-03-31T21:21:39;9.50;99.90
16172;DHT22;8192;53.596;10.166;2023-03-31T21:24:08;9.60;99.90
16172;DHT22;8192;53.596;10.166;2023-03-31T21:26:36;9.60;99.90
16172;DHT22;8192;53.596;10.166;2023-03-31T21:29:03;9.60;99.90
16172;DHT22;8192;53.596;10.166;2023-03-31T21:31:30;9.60;99.90
16172;DHT22;8192;53.596;10.166;2023-03-31T21:33:59;9.60;99.90
16172;DHT22;8192;53.596;10.166;2023-03-31T21:36:27;9.60;99.90
16172;DHT22;8192;53.596;10.166;2023-03-31T21:38:55;9.60;99.90
16172;DHT22;8192;53.596;10.166;2023-03-31T21:41:23;9.60;99.90
16172;DHT22;8192;53.596;10.166;2023-03-31T21:43:51;9.60;99.90
16172;DHT22;8192;53.596;10.166;2023-03-31T21:46:20;9.60;99.90
16172;DHT22;8192;53.596;10.166;2023-03-31T21:48:48;9.60;99.90
16172;DHT22;8192;53.596;10.166;2023-03-31T21:51:19;9.70;99.90
16172;DHT22;8192;53.596;10.166;2023-03-31T21:53:53;9.60;99.90
16172;DHT22;8192;53.596;10.166;2023-03-31T21:56:21;9.70;99.90
16172;DHT22;8192;53.596;10.166;2023-03-31T21:58:48;9.70;99.90
16172;DHT22;8192;53.596;10.166;2023-03-31T22:01:16;9.70;99.90
16172;DHT22;8192;53.596;10.166;2023-03-31T22:03:44;9.70;99.90
16172;DHT22;8192;53.596;10.166;2023-03-31T22:06:13;9.60;99.90
16172;DHT22;8192;53.596;10.166;2023-03-31T22:08:42;9.70;99.90
16172;DHT22;8192;53.596;10.166;2023-03-31T22:11:10;9.60;99.90
16172;DHT22;8192;53.596;10.166;2023-03-31T22:13:38;9.70;99.90
16172;DHT22;8192;53.596;10.166;2023-03-31T22:16:14;9.60;99.90
16172;DHT22;8192;53.596;10.166;2023-03-31T22:18:41;9.60;99.90
16172;DHT22;8192;53.596;10.166;2023-03-31T22:21:17;9.60;99.90
16172;DHT22;8192;53.596;10.166;2023-03-31T22:23:46;9.50;99.90
16172;DHT22;8192;53.596;10.166;2023-03-31T22:26:13;9.50;99.90
16172;DHT22;8192;53.596;10.166;2023-03-31T22:28:40;9.50;99.90
16172;DHT22;8192;53.596;10.166;2023-03-31T22:31:07;9.50;99.90
16172;DHT22;8192;53.596;10.166;2023-03-31T22:33:34;9.50;99.90
16172;DHT22;8192;53.596;10.166;2023-03-31T22:36:01;9.40;99.90
16172;DHT22;8192;53.596;10.166;2023-03-31T22:38:28;9.50;99.90
16172;DHT22;8192;53.596;10.166;2023-03-31T22:40:57;9.40;99.90
16172;DHT22;8192;53.596;10.166;2023-03-31T22:43:24;9.50;99.90
16172;DHT22;8192;53.596;10.166;2023-03-31T22:45:51;9.40;99.90
16172;DHT22;8192;53.596;10.166;2023-03-31T22:48:18;9.40;99.90
16172;DHT22;8192;53.596;10.166;2023-03-31T22:50:45;9.40;99.90
16172;DHT22;8192;53.596;10.166;2023-03-31T22:53:13;9.40;99.90
16172;DHT22;8192;53.596;10.166;2023-03-31T22:55:42;9.40;99.90
16172;DHT22;8192;53.596;10.166;2023-03-31T22:58:21;9.40;99.90
16172;DHT22;8192;53.596;10.166;2023-03-31T23:00:54;9.40;99.90
16172;DHT22;8192;53.596;10.166;2023-03-31T23:03:21;9.30;99.90
16172;DHT22;8192;53.596;10.166;2023-03-31T23:05:48;9.30;99.90
16172;DHT22;8192;53.596;10.166;2023-03-31T23:08:15;9.40;99.90
16172;DHT22;8192;53.596;10.166;2023-03-31T23:10:42;9.30;99.90
16172;DHT22;8192;53.596;10.166;2023-03-31T23:13:20;9.40;99.90
16172;DHT22;8192;53.596;10.166;2023-03-31T23:15:47;9.40;99.90
16172;DHT22;8192;53.596;10.166;2023-03-31T23:18:14;9.40;99.90
16172;DHT22;8192;53.596;10.166;2023-03-31T23:20:41;9.40;99.90
16172;DHT22;8192;53.596;10.166;2023-03-31T23:23:08;9.40;99.90
16172;DHT22;8192;53.596;10.166;2023-03-31T23:25:35;9.40;99.90
16172;DHT22;8192;53.596;10.166;2023-03-31T23:28:03;9.50;99.90
16172;DHT22;8192;53.596;10.166;2023-03-31T23:30:32;9.40;99.90
16172;DHT22;8192;53.596;10.166;2023-03-31T23:32:59;9.40;99.90
16172;DHT22;8192;53.596;10.166;2023-03-31T23:35:26;9.40;99.90
16172;DHT22;8192;53.596;10.166;2023-03-31T23:37:55;9.40;99.90
16172;DHT22;8192;53.596;10.166;2023-03-31T23:40:22;9.40;99.90
16172;DHT22;8192;53.596;10.166;2023-03-31T23:42:49;9.30;99.90
16172;DHT22;8192;53.596;10.166;2023-03-31T23:45:16;9.30;99.90
16172;DHT22;8192;53.596;10.166;2023-03-31T23:47:44;9.40;99.90
16172;DHT22;8192;53.596;10.166;2023-03-31T23:50:11;9.30;99.90
16172;DHT22;8192;53.596;10.166;2023-03-31T23:52:38;9.40;99.90
16172;DHT22;8192;53.596;10.166;2023-03-31T23:55:05;9.30;99.90
16172;DHT22;8192;53.596;10.166;2023-03-31T23:57:32;9.30;99.90
16172;DHT22;8192;53.596;10.166;2023-03-31T23:59:59;9.30;99.90
